createdAt,value
2022-11-06T00:01:58.663Z,0.00
2022-11-06T00:04:29.505Z,0.10
2022-11-06T00:06:56.326Z,0.10
2022-11-06T00:09:24.083Z,0.20
2022-11-06T00:11:52.836Z,0.20
2022-11-06T00:14:21.970Z,0.20
2022-11-06T00:16:49.732Z,0.10
2022-11-06T00:19:18.322Z,0.00
2022-11-06T00:21:46.436Z,0.00
2022-11-06T00:24:15.483Z,-0.10
2022-11-06T00:26:43.909Z,-0.10
2022-11-06T00:29:14.757Z,-0.10
2022-11-06T00:31:43.941Z,-0.20
2022-11-06T00:34:11.970Z,-0.20
2022-11-06T00:36:40.811Z,-0.10
2022-11-06T00:39:08.592Z,-0.10
2022-11-06T00:41:36.401Z,-0.20
2022-11-06T00:44:04.488Z,-0.30
2022-11-06T00:46:32.531Z,-0.30
2022-11-06T00:49:01.641Z,-0.30
2022-11-06T00:51:31.276Z,-0.20
2022-11-06T00:54:00.695Z,-0.30
2022-11-06T00:56:29.107Z,-0.30
2022-11-06T00:58:59.439Z,-0.30
2022-11-06T01:01:29.497Z,-0.30
2022-11-06T01:03:59.316Z,-0.40
2022-11-06T01:06:31.093Z,-0.40
2022-11-06T01:08:59.440Z,-0.50
2022-11-06T01:11:46.560Z,-0.60
2022-11-06T01:14:19.110Z,-0.70
2022-11-06T01:16:46.890Z,-0.70
2022-11-06T01:19:16.123Z,-0.70
2022-11-06T01:21:47.297Z,-0.60
2022-11-06T01:24:17.713Z,-0.50
2022-11-06T01:27:05.331Z,-0.30
2022-11-06T01:29:33.734Z,-0.10
2022-11-06T01:32:01.606Z,-0.10
2022-11-06T01:34:29.520Z,-0.20
2022-11-06T01:36:58.667Z,-0.30
2022-11-06T01:39:26.443Z,-0.40
2022-11-06T01:41:54.726Z,-0.50
2022-11-06T01:44:59.868Z,-0.70
2022-11-06T01:47:30.280Z,-0.80
2022-11-06T01:50:02.160Z,-0.70
2022-11-06T01:52:32.924Z,-0.60
2022-11-06T01:55:07.713Z,-0.30
2022-11-06T01:57:35.570Z,-0.30
2022-11-06T02:00:03.918Z,-0.50
2022-11-06T02:02:32.016Z,-0.60
2022-11-06T02:04:59.927Z,-0.70
2022-11-06T02:07:27.775Z,-0.80
2022-11-06T02:09:57.069Z,-0.90
2022-11-06T02:12:35.156Z,-0.90
2022-11-06T02:15:15.183Z,-1.00
2022-11-06T02:17:57.081Z,-1.00
2022-11-06T02:20:36.980Z,-1.00
2022-11-06T02:23:27.578Z,-1.10
2022-11-06T02:26:07.892Z,-1.10
2022-11-06T02:28:42.825Z,-1.20
2022-11-06T02:31:14.339Z,-1.20
2022-11-06T02:33:48.255Z,-1.20
2022-11-06T02:36:19.927Z,-1.20
2022-11-06T02:38:52.159Z,-1.20
2022-11-06T02:41:23.860Z,-1.20
2022-11-06T02:43:56.534Z,-1.10
2022-11-06T02:46:28.306Z,-1.10
2022-11-06T02:49:01.486Z,-1.10
2022-11-06T02:51:32.878Z,-1.10
2022-11-06T02:54:03.514Z,-1.10
2022-11-06T02:56:38.030Z,-1.10
2022-11-06T02:59:11.440Z,-1.00
2022-11-06T03:01:43.787Z,-1.00
2022-11-06T03:04:17.405Z,-0.80
2022-11-06T03:06:48.969Z,-0.90
2022-11-06T03:09:20.224Z,-0.90
2022-11-06T03:11:52.880Z,-1.00
2022-11-06T03:14:27.762Z,-1.00
2022-11-06T03:17:00.472Z,-0.90
2022-11-06T03:19:34.963Z,-0.80
2022-11-06T03:22:09.612Z,-0.90
2022-11-06T03:24:44.699Z,-1.10
2022-11-06T03:27:16.862Z,-1.30
2022-11-06T03:29:49.728Z,-1.40
2022-11-06T03:32:22.884Z,-1.40
2022-11-06T03:34:54.385Z,-1.50
2022-11-06T03:37:27.462Z,-1.50
2022-11-06T03:39:59.869Z,-1.60
2022-11-06T03:42:30.336Z,-1.60
2022-11-06T03:45:04.051Z,-1.60
2022-11-06T03:47:35.224Z,-1.50
2022-11-06T03:50:11.817Z,-1.50
2022-11-06T03:52:44.060Z,-1.60
2022-11-06T03:55:17.639Z,-1.60
2022-11-06T03:57:48.857Z,-1.60
2022-11-06T04:00:20.335Z,-1.50
2022-11-06T04:02:51.663Z,-1.50
2022-11-06T04:05:24.249Z,-1.50
2022-11-06T04:08:10.668Z,-1.50
2022-11-06T04:10:59.444Z,-1.60
2022-11-06T04:13:48.532Z,-1.60
2022-11-06T04:16:19.034Z,-1.50
2022-11-06T04:18:46.797Z,-1.40
2022-11-06T04:21:26.171Z,-1.30
2022-11-06T04:24:24.280Z,-1.00
2022-11-06T04:27:04.480Z,-0.90
2022-11-06T04:29:44.342Z,-1.20
2022-11-06T04:32:20.415Z,-1.40
2022-11-06T04:35:01.454Z,-1.50
2022-11-06T04:37:34.691Z,-1.60
2022-11-06T04:40:09.591Z,-1.70
2022-11-06T04:42:43.252Z,-1.70
2022-11-06T04:45:15.636Z,-1.80
2022-11-06T04:47:46.235Z,-1.80
2022-11-06T04:50:16.444Z,-1.90
2022-11-06T04:52:46.069Z,-1.90
2022-11-06T04:55:14.043Z,-1.50
2022-11-06T04:57:41.806Z,-1.40
2022-11-06T05:00:15.892Z,-1.40
2022-11-06T05:02:45.136Z,-1.40
2022-11-06T05:05:12.987Z,-1.50
2022-11-06T05:07:40.731Z,-1.70
2022-11-06T05:10:09.218Z,-1.80
2022-11-06T05:12:37.047Z,-1.80
2022-11-06T05:15:05.269Z,-1.80
2022-11-06T05:17:36.521Z,-1.80
2022-11-06T05:20:07.118Z,-1.70
2022-11-06T05:22:52.366Z,-1.40
2022-11-06T05:25:20.162Z,-1.00
2022-11-06T05:27:47.933Z,-1.20
2022-11-06T05:30:15.816Z,-1.40
2022-11-06T05:32:43.585Z,-1.60
2022-11-06T05:35:12.704Z,-1.70
2022-11-06T05:37:40.459Z,-1.90
2022-11-06T05:40:09.378Z,-1.80
2022-11-06T05:42:38.694Z,-1.90
2022-11-06T05:45:07.681Z,-2.00
2022-11-06T05:47:35.968Z,-2.00
2022-11-06T05:50:03.832Z,-2.00
2022-11-06T05:52:33.099Z,-1.90
2022-11-06T05:55:00.858Z,-1.80
2022-11-06T05:57:28.719Z,-1.70
2022-11-06T05:59:56.455Z,-1.60
2022-11-06T06:02:24.365Z,-1.50
2022-11-06T06:04:52.293Z,-1.50
2022-11-06T06:07:20.064Z,-1.70
2022-11-06T06:09:49.269Z,-1.80
2022-11-06T06:12:17.125Z,-1.80
2022-11-06T06:14:50.111Z,-1.80
2022-11-06T06:17:18.239Z,-1.90
2022-11-06T06:19:46.009Z,-1.80
2022-11-06T06:22:13.764Z,-1.90
2022-11-06T06:24:42.066Z,-1.90
2022-11-06T06:27:11.447Z,-1.90
2022-11-06T06:29:39.211Z,-1.70
2022-11-06T06:32:07.414Z,-1.50
2022-11-06T06:34:35.225Z,-1.30
2022-11-06T06:37:03.706Z,-1.20
2022-11-06T06:39:31.833Z,-1.20
2022-11-06T06:41:59.784Z,-1.10
2022-11-06T06:44:28.969Z,-1.00
2022-11-06T06:46:56.755Z,-1.10
2022-11-06T06:49:24.570Z,-1.00
2022-11-06T06:51:52.401Z,-1.10
2022-11-06T06:54:20.176Z,-1.00
2022-11-06T06:56:49.194Z,-1.10
2022-11-06T06:59:17.078Z,-1.00
2022-11-06T07:01:46.289Z,-0.90
2022-11-06T07:04:14.128Z,-0.90
2022-11-06T07:06:41.909Z,-0.80
2022-11-06T07:09:09.699Z,-0.80
2022-11-06T07:11:37.483Z,-0.70
2022-11-06T07:14:05.381Z,-0.90
2022-11-06T07:16:33.333Z,-1.00
2022-11-06T07:19:02.787Z,-1.10
2022-11-06T07:21:30.573Z,-1.00
2022-11-06T07:23:58.323Z,-0.80
2022-11-06T07:26:26.069Z,-0.60
2022-11-06T07:28:53.820Z,-0.50
2022-11-06T07:31:21.563Z,-0.20
2022-11-06T07:33:49.547Z,0.30
2022-11-06T07:36:18.735Z,1.00
2022-11-06T07:38:46.498Z,1.20
2022-11-06T07:41:15.889Z,1.50
2022-11-06T07:43:44.367Z,1.80
2022-11-06T07:46:14.107Z,1.80
2022-11-06T07:48:41.932Z,1.90
2022-11-06T07:51:11.726Z,1.80
2022-11-06T07:53:41.375Z,1.50
2022-11-06T07:56:09.811Z,1.00
2022-11-06T07:58:38.575Z,1.40
2022-11-06T08:01:07.202Z,1.10
2022-11-06T08:03:35.034Z,1.10
2022-11-06T08:06:05.067Z,1.20
2022-11-06T08:08:32.896Z,1.30
2022-11-06T08:11:04.512Z,1.30
2022-11-06T08:13:33.839Z,1.00
2022-11-06T08:16:04.896Z,1.10
2022-11-06T08:18:32.711Z,1.20
2022-11-06T08:21:00.781Z,1.30
2022-11-06T08:23:29.087Z,1.50
2022-11-06T08:25:57.829Z,1.80
2022-11-06T08:28:27.663Z,2.10
2022-11-06T08:30:55.852Z,2.30
2022-11-06T08:33:25.070Z,2.60
2022-11-06T08:35:52.880Z,3.00
2022-11-06T08:38:20.642Z,3.00
2022-11-06T08:40:53.362Z,3.30
2022-11-06T08:43:24.081Z,3.60
2022-11-06T08:45:53.650Z,4.10
2022-11-06T08:48:21.495Z,4.00
2022-11-06T08:50:49.586Z,4.20
2022-11-06T08:53:18.039Z,3.70
2022-11-06T08:55:46.076Z,3.50
2022-11-06T08:58:14.487Z,3.50
2022-11-06T09:00:42.463Z,3.50
2022-11-06T09:03:17.923Z,3.70
2022-11-06T09:05:46.269Z,3.90
2022-11-06T09:08:14.767Z,4.00
2022-11-06T09:10:43.631Z,3.90
2022-11-06T09:13:12.153Z,4.00
2022-11-06T09:15:40.806Z,4.00
2022-11-06T09:18:08.938Z,4.00
2022-11-06T09:20:38.512Z,4.10
2022-11-06T09:23:07.933Z,4.00
2022-11-06T09:25:35.889Z,4.10
2022-11-06T09:28:03.668Z,3.80
2022-11-06T09:30:32.695Z,3.80
2022-11-06T09:33:02.961Z,3.80
2022-11-06T09:35:32.504Z,4.00
2022-11-06T09:38:06.435Z,4.10
2022-11-06T09:40:37.208Z,4.00
2022-11-06T09:43:27.348Z,3.90
2022-11-06T09:46:09.648Z,3.70
2022-11-06T09:48:42.959Z,4.10
2022-11-06T09:51:18.149Z,4.40
2022-11-06T09:53:52.580Z,4.60
2022-11-06T09:56:25.218Z,4.90
2022-11-06T09:58:54.670Z,5.10
2022-11-06T10:01:27.355Z,5.10
2022-11-06T10:03:59.728Z,5.40
2022-11-06T10:06:29.247Z,5.60
2022-11-06T10:09:02.104Z,5.70
2022-11-06T10:11:46.397Z,5.80
2022-11-06T10:14:28.479Z,5.90
2022-11-06T10:17:02.509Z,6.20
2022-11-06T10:19:39.578Z,6.50
2022-11-06T10:22:15.379Z,6.50
2022-11-06T10:24:47.045Z,6.70
2022-11-06T10:27:17.815Z,6.60
2022-11-06T10:30:03.911Z,6.50
2022-11-06T10:33:00.976Z,6.20
2022-11-06T10:35:35.829Z,6.20
2022-11-06T10:38:12.177Z,6.00
2022-11-06T10:40:45.697Z,6.00
2022-11-06T10:43:25.321Z,6.10
2022-11-06T10:45:59.988Z,6.00
2022-11-06T10:48:34.284Z,6.00
2022-11-06T10:51:17.006Z,6.00
2022-11-06T10:53:53.347Z,6.10
2022-11-06T10:56:32.981Z,6.60
2022-11-06T10:59:00.877Z,6.50
2022-11-06T11:01:29.327Z,6.50
2022-11-06T11:03:57.273Z,6.90
2022-11-06T11:06:25.098Z,7.30
2022-11-06T11:08:53.475Z,7.40
2022-11-06T11:11:25.748Z,7.70
2022-11-06T11:14:15.155Z,7.90
2022-11-06T11:16:45.623Z,7.90
2022-11-06T11:19:24.285Z,7.90
2022-11-06T11:21:57.620Z,7.90
2022-11-06T11:24:26.079Z,7.80
2022-11-06T11:26:58.327Z,7.70
2022-11-06T11:29:28.271Z,7.90
2022-11-06T11:31:59.781Z,8.00
2022-11-06T11:34:29.536Z,8.20
2022-11-06T11:37:00.952Z,8.20
2022-11-06T11:39:31.712Z,8.40
2022-11-06T11:42:23.912Z,8.50
2022-11-06T11:45:13.416Z,8.50
2022-11-06T11:47:42.886Z,8.50
2022-11-06T11:50:29.556Z,8.80
2022-11-06T11:53:07.121Z,8.80
2022-11-06T11:55:40.802Z,8.80
2022-11-06T11:58:21.827Z,8.60
2022-11-06T12:00:53.779Z,9.20
2022-11-06T12:03:23.576Z,9.40
2022-11-06T12:05:52.707Z,9.40
2022-11-06T12:08:26.227Z,9.00
2022-11-06T12:10:54.164Z,8.90
2022-11-06T12:13:25.359Z,8.80
2022-11-06T12:15:58.497Z,9.00
2022-11-06T12:18:30.278Z,9.20
2022-11-06T12:21:02.447Z,9.40
2022-11-06T12:23:37.331Z,9.40
2022-11-06T12:26:10.278Z,9.40
2022-11-06T12:28:42.598Z,9.20
2022-11-06T12:31:19.629Z,8.70
2022-11-06T12:34:06.942Z,8.70
2022-11-06T12:36:43.070Z,8.70
2022-11-06T12:39:14.853Z,9.10
2022-11-06T12:41:45.876Z,9.30
2022-11-06T12:44:16.963Z,8.90
2022-11-06T12:46:53.116Z,9.10
2022-11-06T12:49:52.246Z,9.00
2022-11-06T12:52:38.087Z,9.10
2022-11-06T12:55:15.735Z,9.20
2022-11-06T12:57:58.013Z,9.40
2022-11-06T13:00:32.448Z,9.50
2022-11-06T13:03:20.327Z,9.60
2022-11-06T13:05:56.366Z,9.60
2022-11-06T13:08:36.686Z,9.70
2022-11-06T13:11:14.998Z,9.80
2022-11-06T13:14:00.614Z,9.80
2022-11-06T13:16:35.967Z,9.80
2022-11-06T13:19:09.961Z,9.90
2022-11-06T13:21:58.517Z,10.00
2022-11-06T13:24:34.629Z,9.90
2022-11-06T13:27:09.444Z,9.80
2022-11-06T13:29:38.539Z,9.40
2022-11-06T13:32:14.408Z,9.40
2022-11-06T13:34:43.791Z,9.20
2022-11-06T13:37:17.305Z,8.90
2022-11-06T13:39:49.248Z,8.70
2022-11-06T13:42:24.197Z,8.80
2022-11-06T13:44:52.662Z,8.60
2022-11-06T13:47:27.844Z,8.70
2022-11-06T13:50:05.298Z,8.80
2022-11-06T13:52:39.501Z,8.80
2022-11-06T13:55:14.930Z,8.80
2022-11-06T13:58:17.509Z,8.90
2022-11-06T14:00:58.837Z,8.70
2022-11-06T14:03:53.720Z,8.40
2022-11-06T14:06:23.515Z,8.40
2022-11-06T14:08:53.492Z,8.30
2022-11-06T14:11:27.751Z,8.20
2022-11-06T14:14:01.257Z,8.20
2022-11-06T14:16:31.900Z,8.20
2022-11-06T14:19:04.920Z,8.30
2022-11-06T14:21:51.791Z,8.40
2022-11-06T14:24:31.887Z,8.40
2022-11-06T14:27:01.273Z,8.30
2022-11-06T14:29:57.313Z,8.40
2022-11-06T14:32:45.489Z,8.40
2022-11-06T14:35:49.487Z,8.50
2022-11-06T14:38:20.701Z,8.50
2022-11-06T14:40:48.524Z,8.50
2022-11-06T14:43:20.121Z,8.50
2022-11-06T14:45:52.864Z,8.60
2022-11-06T14:48:28.987Z,8.60
2022-11-06T14:50:59.855Z,8.80
2022-11-06T14:53:30.526Z,8.80
2022-11-06T14:56:00.456Z,8.90
2022-11-06T14:58:32.366Z,9.00
2022-11-06T15:01:03.361Z,9.00
2022-11-06T15:03:38.964Z,8.90
2022-11-06T15:06:22.609Z,8.90
2022-11-06T15:08:55.603Z,8.90
2022-11-06T15:11:52.507Z,8.80
2022-11-06T15:15:00.132Z,8.60
2022-11-06T15:17:32.636Z,8.50
2022-11-06T15:20:24.364Z,8.30
2022-11-06T15:23:16.281Z,8.20
2022-11-06T15:25:57.156Z,8.10
2022-11-06T15:28:29.389Z,7.90
2022-11-06T15:31:01.517Z,7.80
2022-11-06T15:33:34.946Z,7.80
2022-11-06T15:36:06.260Z,7.70
2022-11-06T15:38:40.710Z,7.70
2022-11-06T15:41:14.736Z,7.70
2022-11-06T15:43:45.861Z,7.70
2022-11-06T15:46:21.223Z,7.70
2022-11-06T15:48:50.303Z,7.60
2022-11-06T15:51:25.287Z,7.60
2022-11-06T15:53:54.755Z,7.50
2022-11-06T15:56:26.128Z,7.40
2022-11-06T15:59:09.273Z,7.40
2022-11-06T16:01:37.718Z,7.40
2022-11-06T16:04:15.666Z,7.40
2022-11-06T16:06:45.462Z,7.30
2022-11-06T16:09:19.118Z,7.20
2022-11-06T16:11:48.529Z,7.20
2022-11-06T16:14:16.584Z,7.20
2022-11-06T16:16:47.651Z,7.20
2022-11-06T16:19:27.233Z,7.20
2022-11-06T16:21:58.521Z,7.20
2022-11-06T16:24:31.712Z,7.20
2022-11-06T16:27:00.166Z,7.10
2022-11-06T16:29:29.775Z,7.10
2022-11-06T16:32:01.947Z,7.00
2022-11-06T16:34:39.819Z,7.10
2022-11-06T16:37:29.590Z,7.10
2022-11-06T16:39:59.949Z,7.20
2022-11-06T16:42:30.163Z,7.40
2022-11-06T16:45:17.560Z,7.50
2022-11-06T16:48:23.740Z,7.60
2022-11-06T16:50:54.682Z,7.70
2022-11-06T16:53:25.100Z,7.90
2022-11-06T16:55:58.590Z,8.00
2022-11-06T16:58:28.252Z,8.10
2022-11-06T17:01:01.460Z,8.20
2022-11-06T17:03:35.119Z,8.20
2022-11-06T17:06:03.217Z,8.30
2022-11-06T17:08:35.243Z,8.30
2022-11-06T17:11:21.647Z,8.40
2022-11-06T17:13:50.976Z,8.40
2022-11-06T17:16:21.965Z,8.40
2022-11-06T17:18:50.301Z,8.40
2022-11-06T17:21:20.699Z,8.30
2022-11-06T17:23:49.722Z,8.00
2022-11-06T17:26:22.535Z,7.90
2022-11-06T17:28:50.344Z,7.80
2022-11-06T17:31:19.807Z,7.80
2022-11-06T17:33:48.374Z,7.70
2022-11-06T17:36:18.934Z,7.80
2022-11-06T17:38:47.951Z,7.70
2022-11-06T17:41:29.497Z,7.50
2022-11-06T17:43:59.320Z,7.40
2022-11-06T17:46:28.459Z,7.30
2022-11-06T17:48:56.904Z,7.30
2022-11-06T17:51:42.242Z,7.20
2022-11-06T17:54:10.499Z,7.10
2022-11-06T17:56:38.812Z,6.90
2022-11-06T17:59:09.693Z,6.80
2022-11-06T18:01:37.982Z,6.90
2022-11-06T18:04:06.920Z,6.80
2022-11-06T18:06:34.708Z,6.70
2022-11-06T18:09:04.227Z,6.90
2022-11-06T18:11:32.024Z,6.90
2022-11-06T18:14:00.019Z,6.90
2022-11-06T18:16:32.165Z,6.80
2022-11-06T18:19:00.209Z,6.80
2022-11-06T18:21:28.266Z,6.90
2022-11-06T18:23:56.037Z,6.80
2022-11-06T18:26:23.786Z,6.90
2022-11-06T18:28:51.955Z,7.20
2022-11-06T18:31:20.456Z,7.90
2022-11-06T18:33:49.589Z,8.50
2022-11-06T18:36:17.485Z,8.70
2022-11-06T18:38:45.243Z,8.90
2022-11-06T18:41:15.122Z,9.10
2022-11-06T18:43:43.090Z,9.20
2022-11-06T18:46:12.890Z,9.30
2022-11-06T18:48:41.141Z,9.20
2022-11-06T18:51:11.672Z,9.10
2022-11-06T18:53:40.463Z,9.20
2022-11-06T18:56:10.747Z,9.20
2022-11-06T18:58:38.804Z,9.20
2022-11-06T19:01:07.820Z,9.20
2022-11-06T19:03:35.802Z,9.20
2022-11-06T19:06:04.833Z,9.10
2022-11-06T19:08:34.112Z,9.20
2022-11-06T19:11:03.665Z,9.20
2022-11-06T19:13:31.689Z,9.20
2022-11-06T19:16:00.205Z,9.30
2022-11-06T19:18:29.658Z,9.30
2022-11-06T19:20:58.114Z,9.30
2022-11-06T19:23:26.485Z,9.30
2022-11-06T19:26:04.545Z,9.30
2022-11-06T19:28:44.359Z,9.30
2022-11-06T19:31:13.002Z,9.30
2022-11-06T19:33:40.860Z,9.30
2022-11-06T19:36:09.368Z,9.20
2022-11-06T19:38:37.121Z,9.10
2022-11-06T19:41:06.555Z,9.10
2022-11-06T19:43:38.095Z,9.00
2022-11-06T19:46:06.813Z,9.00
2022-11-06T19:48:35.429Z,8.90
2022-11-06T19:51:03.941Z,8.80
2022-11-06T19:53:31.693Z,8.70
2022-11-06T19:56:01.536Z,8.60
2022-11-06T19:58:30.661Z,8.60
2022-11-06T20:00:58.455Z,8.50
2022-11-06T20:03:26.267Z,8.40
2022-11-06T20:05:54.896Z,8.30
2022-11-06T20:08:22.863Z,8.30
2022-11-06T20:10:50.677Z,8.30
2022-11-06T20:13:18.442Z,8.20
2022-11-06T20:15:47.511Z,8.20
2022-11-06T20:18:15.293Z,8.30
2022-11-06T20:20:43.052Z,8.30
2022-11-06T20:23:11.197Z,8.40
2022-11-06T20:25:39.076Z,8.40
2022-11-06T20:28:06.848Z,8.40
2022-11-06T20:30:34.624Z,8.40
2022-11-06T20:33:03.832Z,8.50
2022-11-06T20:35:31.576Z,8.50
2022-11-06T20:37:59.403Z,8.60
2022-11-06T20:40:31.836Z,8.60
2022-11-06T20:43:02.250Z,8.80
2022-11-06T20:45:30.014Z,8.80
2022-11-06T20:47:57.830Z,8.80
2022-11-06T20:50:26.932Z,8.80
2022-11-06T20:52:54.673Z,8.90
2022-11-06T20:55:22.415Z,8.80
2022-11-06T20:57:50.159Z,8.80
2022-11-06T21:00:19.345Z,8.90
2022-11-06T21:02:47.437Z,9.00
2022-11-06T21:05:15.564Z,9.00
2022-11-06T21:07:44.717Z,9.00
2022-11-06T21:10:12.534Z,8.90
2022-11-06T21:12:40.301Z,9.00
2022-11-06T21:15:09.053Z,8.90
2022-11-06T21:17:36.817Z,8.80
2022-11-06T21:20:05.061Z,8.80
2022-11-06T21:22:32.910Z,8.70
2022-11-06T21:25:02.063Z,8.60
2022-11-06T21:27:29.811Z,8.60
2022-11-06T21:29:58.215Z,8.60
2022-11-06T21:32:26.361Z,8.60
2022-11-06T21:34:54.122Z,8.70
2022-11-06T21:37:32.629Z,8.90
2022-11-06T21:40:01.790Z,8.90
2022-11-06T21:42:29.631Z,8.80
2022-11-06T21:44:57.403Z,8.80
2022-11-06T21:47:25.166Z,9.00
2022-11-06T21:49:54.761Z,9.00
2022-11-06T21:52:40.638Z,9.00
2022-11-06T21:55:28.228Z,9.10
2022-11-06T21:57:56.060Z,9.10
2022-11-06T22:00:23.900Z,9.20
2022-11-06T22:02:51.877Z,9.20
2022-11-06T22:05:19.830Z,9.10
2022-11-06T22:07:47.621Z,9.20
2022-11-06T22:10:16.801Z,9.10
2022-11-06T22:12:44.559Z,9.20
2022-11-06T22:15:12.334Z,9.20
2022-11-06T22:17:40.201Z,9.10
2022-11-06T22:20:08.955Z,9.10
2022-11-06T22:22:36.717Z,9.00
2022-11-06T22:25:05.019Z,9.00
2022-11-06T22:27:39.645Z,9.00
2022-11-06T22:30:09.783Z,9.10
2022-11-06T22:32:37.688Z,9.20
2022-11-06T22:35:06.051Z,9.30
2022-11-06T22:37:33.801Z,9.20
2022-11-06T22:40:01.608Z,9.30
2022-11-06T22:42:29.353Z,9.30
2022-11-06T22:44:58.432Z,9.20
2022-11-06T22:47:26.179Z,9.10
2022-11-06T22:49:54.050Z,9.10
2022-11-06T22:52:21.814Z,9.00
2022-11-06T22:54:49.568Z,9.00
2022-11-06T22:57:17.299Z,9.00
2022-11-06T22:59:45.033Z,9.00
2022-11-06T23:02:14.223Z,9.00
2022-11-06T23:04:42.210Z,9.00
2022-11-06T23:07:09.949Z,8.90
2022-11-06T23:09:37.751Z,8.80
2022-11-06T23:12:05.891Z,8.80
2022-11-06T23:14:33.667Z,8.80
2022-11-06T23:17:01.544Z,8.70
2022-11-06T23:19:33.000Z,8.60
2022-11-06T23:22:18.816Z,8.60
2022-11-06T23:24:46.898Z,8.60
2022-11-06T23:27:14.843Z,8.60
2022-11-06T23:29:42.638Z,8.50
2022-11-06T23:32:10.513Z,8.50
2022-11-06T23:34:39.628Z,8.50
2022-11-06T23:37:07.490Z,8.50
2022-11-06T23:39:35.426Z,8.60
2022-11-06T23:42:03.285Z,8.70
2022-11-06T23:44:48.814Z,8.70
2022-11-06T23:47:16.618Z,8.70
2022-11-06T23:49:45.732Z,8.70
2022-11-06T23:52:13.577Z,8.70
2022-11-06T23:54:41.337Z,8.70
2022-11-06T23:57:09.827Z,8.80
2022-11-06T23:59:37.729Z,8.80
